createdAt,value
2023-05-19T00:00:48.987Z,100.00
2023-05-19T00:01:55.238Z,100.00
2023-05-19T00:02:58.510Z,100.00
2023-05-19T00:04:05.651Z,100.00
2023-05-19T00:05:10.642Z,100.00
2023-05-19T00:06:14.099Z,100.00
2023-05-19T00:07:20.724Z,100.00
2023-05-19T00:08:24.951Z,100.00
2023-05-19T00:09:28.002Z,100.00
2023-05-19T00:10:33.758Z,100.00
2023-05-19T00:11:38.980Z,100.00
2023-05-19T00:12:43.267Z,100.00
2023-05-19T00:13:49.763Z,100.00
2023-05-19T00:14:52.929Z,100.00
2023-05-19T00:15:56.540Z,100.00
2023-05-19T00:17:02.394Z,100.00
2023-05-19T00:18:05.424Z,100.00
2023-05-19T00:19:11.702Z,100.00
2023-05-19T00:20:16.013Z,100.00
2023-05-19T00:21:19.113Z,100.00
2023-05-19T00:22:21.957Z,100.00
2023-05-19T00:23:24.721Z,100.00
2023-05-19T00:24:27.515Z,100.00
2023-05-19T00:25:30.320Z,100.00
2023-05-19T00:26:33.333Z,100.00
2023-05-19T00:27:36.415Z,100.00
2023-05-19T00:28:39.417Z,100.00
2023-05-19T00:29:42.253Z,100.00
2023-05-19T00:30:45.267Z,100.00
2023-05-19T00:31:48.058Z,100.00
2023-05-19T00:32:51.461Z,100.00
2023-05-19T00:33:54.319Z,100.00
2023-05-19T00:34:57.181Z,100.00
2023-05-19T00:36:04.219Z,100.00
2023-05-19T00:37:07.274Z,100.00
2023-05-19T00:38:10.090Z,100.00
2023-05-19T00:39:13.256Z,100.00
2023-05-19T00:40:16.640Z,100.00
2023-05-19T00:41:19.780Z,100.00
2023-05-19T00:42:22.737Z,100.00
2023-05-19T00:43:25.678Z,100.00
2023-05-19T00:44:28.434Z,100.00
2023-05-19T00:45:31.490Z,100.00
2023-05-19T00:46:34.723Z,100.00
2023-05-19T00:47:37.740Z,100.00
2023-05-19T00:48:40.714Z,100.00
2023-05-19T00:49:43.575Z,100.00
2023-05-19T00:50:46.656Z,100.00
2023-05-19T00:51:50.002Z,100.00
2023-05-19T00:52:52.872Z,100.00
2023-05-19T00:53:56.869Z,100.00
2023-05-19T00:55:00.188Z,100.00
2023-05-19T00:56:03.836Z,100.00
2023-05-19T00:57:06.992Z,100.00
2023-05-19T00:58:12.018Z,100.00
2023-05-19T00:59:14.784Z,100.00
2023-05-19T01:00:18.502Z,100.00
2023-05-19T01:01:21.983Z,100.00
2023-05-19T01:02:25.002Z,100.00
2023-05-19T01:03:31.204Z,100.00
2023-05-19T01:04:36.702Z,100.00
2023-05-19T01:05:50.079Z,100.00
2023-05-19T01:06:55.608Z,100.00
2023-05-19T01:07:58.571Z,100.00
2023-05-19T01:09:01.496Z,100.00
2023-05-19T01:10:04.962Z,100.00
2023-05-19T01:11:08.773Z,100.00
2023-05-19T01:12:11.652Z,100.00
2023-05-19T01:13:15.005Z,100.00
2023-05-19T01:14:19.210Z,100.00
2023-05-19T01:15:23.944Z,100.00
2023-05-19T01:16:41.437Z,100.00
2023-05-19T01:17:45.203Z,100.00
2023-05-19T01:19:11.419Z,100.00
2023-05-19T01:20:26.293Z,100.00
2023-05-19T01:21:44.695Z,100.00
2023-05-19T01:23:16.998Z,100.00
2023-05-19T01:24:34.920Z,100.00
2023-05-19T01:25:38.006Z,100.00
2023-05-19T01:26:53.007Z,100.00
2023-05-19T01:28:17.224Z,100.00
2023-05-19T01:29:38.551Z,100.00
2023-05-19T01:30:43.235Z,100.00
2023-05-19T01:31:48.269Z,100.00
2023-05-19T01:32:53.656Z,100.00
2023-05-19T01:33:57.845Z,100.00
2023-05-19T01:35:01.508Z,100.00
2023-05-19T01:36:08.232Z,100.00
2023-05-19T01:37:13.492Z,100.00
2023-05-19T01:38:18.344Z,100.00
2023-05-19T01:39:22.235Z,100.00
2023-05-19T01:40:26.686Z,100.00
2023-05-19T01:41:33.021Z,100.00
2023-05-19T01:42:40.156Z,100.00
2023-05-19T01:43:43.248Z,100.00
2023-05-19T01:44:47.105Z,100.00
2023-05-19T01:45:51.193Z,100.00
2023-05-19T01:46:54.853Z,100.00
2023-05-19T01:48:00.235Z,100.00
2023-05-19T01:49:03.492Z,100.00
2023-05-19T01:50:07.244Z,100.00
2023-05-19T01:51:10.178Z,100.00
2023-05-19T01:52:13.066Z,100.00
2023-05-19T01:53:16.216Z,100.00
2023-05-19T01:54:19.283Z,100.00
2023-05-19T01:55:25.945Z,100.00
2023-05-19T01:56:41.753Z,100.00
2023-05-19T01:58:09.457Z,100.00
2023-05-19T01:59:44.499Z,100.00
2023-05-19T02:01:05.440Z,100.00
2023-05-19T02:02:21.856Z,100.00
2023-05-19T02:03:33.739Z,100.00
2023-05-19T02:04:56.354Z,100.00
2023-05-19T02:06:14.347Z,100.00
2023-05-19T02:07:27.008Z,100.00
2023-05-19T02:08:58.634Z,100.00
2023-05-19T02:10:14.926Z,100.00
2023-05-19T02:11:32.214Z,100.00
2023-05-19T02:12:37.930Z,100.00
2023-05-19T02:13:45.013Z,100.00
2023-05-19T02:15:02.968Z,100.00
2023-05-19T02:16:06.672Z,100.00
2023-05-19T02:17:13.264Z,100.00
2023-05-19T02:18:18.573Z,100.00
2023-05-19T02:19:23.340Z,100.00
2023-05-19T02:20:26.492Z,100.00
2023-05-19T02:21:29.314Z,100.00
2023-05-19T02:22:32.162Z,100.00
2023-05-19T02:23:35.000Z,100.00
2023-05-19T02:24:38.005Z,100.00
2023-05-19T02:25:40.991Z,100.00
2023-05-19T02:26:44.256Z,100.00
2023-05-19T02:27:49.289Z,100.00
2023-05-19T02:28:52.177Z,100.00
2023-05-19T02:29:55.135Z,100.00
2023-05-19T02:30:57.894Z,100.00
2023-05-19T02:32:02.606Z,100.00
2023-05-19T02:33:06.912Z,100.00
2023-05-19T02:34:10.091Z,100.00
2023-05-19T02:35:13.700Z,100.00
2023-05-19T02:36:16.652Z,100.00
2023-05-19T02:37:19.524Z,100.00
2023-05-19T02:38:22.527Z,100.00
2023-05-19T02:39:25.374Z,100.00
2023-05-19T02:40:28.232Z,100.00
2023-05-19T02:41:31.655Z,100.00
2023-05-19T02:42:34.442Z,100.00
2023-05-19T02:43:37.271Z,100.00
2023-05-19T02:44:40.267Z,100.00
2023-05-19T02:45:43.119Z,100.00
2023-05-19T02:46:46.278Z,100.00
2023-05-19T02:47:49.445Z,100.00
2023-05-19T02:48:53.465Z,100.00
2023-05-19T02:49:56.373Z,100.00
2023-05-19T02:50:59.130Z,100.00
2023-05-19T02:52:05.893Z,100.00
2023-05-19T02:53:08.750Z,100.00
2023-05-19T02:54:11.654Z,100.00
2023-05-19T02:55:17.421Z,100.00
2023-05-19T02:56:21.642Z,100.00
2023-05-19T02:57:24.588Z,100.00
2023-05-19T02:58:27.369Z,100.00
2023-05-19T02:59:30.189Z,100.00
2023-05-19T03:00:33.041Z,100.00
2023-05-19T03:01:37.954Z,100.00
2023-05-19T03:02:41.660Z,100.00
2023-05-19T03:03:44.867Z,100.00
2023-05-19T03:04:47.764Z,100.00
2023-05-19T03:05:50.808Z,100.00
2023-05-19T03:06:54.420Z,100.00
2023-05-19T03:07:57.429Z,100.00
2023-05-19T03:09:00.319Z,100.00
2023-05-19T03:10:07.130Z,100.00
2023-05-19T03:11:10.114Z,100.00
2023-05-19T03:12:12.916Z,100.00
2023-05-19T03:13:17.382Z,100.00
2023-05-19T03:14:24.344Z,100.00
2023-05-19T03:15:27.216Z,100.00
2023-05-19T03:16:30.130Z,100.00
2023-05-19T03:17:34.591Z,100.00
2023-05-19T03:18:37.494Z,100.00
2023-05-19T03:19:40.399Z,100.00
2023-05-19T03:20:44.903Z,100.00
2023-05-19T03:21:47.883Z,100.00
2023-05-19T03:22:51.060Z,100.00
2023-05-19T03:23:54.917Z,100.00
2023-05-19T03:24:58.732Z,100.00
2023-05-19T03:26:01.517Z,100.00
2023-05-19T03:27:06.123Z,100.00
2023-05-19T03:28:08.906Z,100.00
2023-05-19T03:29:11.936Z,100.00
2023-05-19T03:30:15.644Z,100.00
2023-05-19T03:31:18.581Z,100.00
2023-05-19T03:32:21.502Z,100.00
2023-05-19T03:33:24.806Z,100.00
2023-05-19T03:34:27.637Z,100.00
2023-05-19T03:35:30.406Z,100.00
2023-05-19T03:36:33.263Z,100.00
2023-05-19T03:37:36.105Z,100.00
2023-05-19T03:38:38.994Z,100.00
2023-05-19T03:39:41.822Z,100.00
2023-05-19T03:40:45.282Z,100.00
2023-05-19T03:41:48.021Z,100.00
2023-05-19T03:42:50.833Z,100.00
2023-05-19T03:43:53.684Z,100.00
2023-05-19T03:44:56.614Z,100.00
2023-05-19T03:45:59.667Z,100.00
2023-05-19T03:47:02.478Z,100.00
2023-05-19T03:48:06.270Z,100.00
2023-05-19T03:49:09.093Z,100.00
2023-05-19T03:50:11.855Z,100.00
2023-05-19T03:51:14.781Z,100.00
2023-05-19T03:52:17.638Z,100.00
2023-05-19T03:53:20.864Z,100.00
2023-05-19T03:54:23.613Z,100.00
2023-05-19T03:55:27.055Z,100.00
2023-05-19T03:56:30.207Z,100.00
2023-05-19T03:57:33.871Z,100.00
2023-05-19T03:58:39.645Z,100.00
2023-05-19T03:59:44.310Z,100.00
2023-05-19T04:00:47.253Z,100.00
2023-05-19T04:01:50.294Z,100.00
2023-05-19T04:02:53.195Z,100.00
2023-05-19T04:03:56.099Z,100.00
2023-05-19T04:04:58.922Z,100.00
2023-05-19T04:06:01.861Z,100.00
2023-05-19T04:07:04.715Z,100.00
2023-05-19T04:08:07.593Z,100.00
2023-05-19T04:09:14.690Z,100.00
2023-05-19T04:10:17.595Z,100.00
2023-05-19T04:11:21.682Z,100.00
2023-05-19T04:12:24.429Z,100.00
2023-05-19T04:13:27.397Z,100.00
2023-05-19T04:14:30.226Z,100.00
2023-05-19T04:15:33.202Z,100.00
2023-05-19T04:16:36.277Z,100.00
2023-05-19T04:17:39.253Z,100.00
2023-05-19T04:18:42.737Z,100.00
2023-05-19T04:19:45.675Z,100.00
2023-05-19T04:20:48.681Z,100.00
2023-05-19T04:21:51.653Z,100.00
2023-05-19T04:22:54.467Z,100.00
2023-05-19T04:23:59.397Z,100.00
2023-05-19T04:25:04.150Z,100.00
2023-05-19T04:26:07.261Z,100.00
2023-05-19T04:27:12.459Z,100.00
2023-05-19T04:28:16.167Z,100.00
2023-05-19T04:29:19.261Z,100.00
2023-05-19T04:30:22.783Z,100.00
2023-05-19T04:31:26.297Z,100.00
2023-05-19T04:32:29.539Z,100.00
2023-05-19T04:33:34.228Z,100.00
2023-05-19T04:34:40.635Z,100.00
2023-05-19T04:35:44.333Z,100.00
2023-05-19T04:36:48.788Z,100.00
2023-05-19T04:37:54.568Z,100.00
2023-05-19T04:39:02.578Z,100.00
2023-05-19T04:40:06.566Z,100.00
2023-05-19T04:41:12.436Z,100.00
2023-05-19T04:42:19.499Z,100.00
2023-05-19T04:43:22.486Z,100.00
2023-05-19T04:44:25.432Z,100.00
2023-05-19T04:45:28.464Z,100.00
2023-05-19T04:46:31.358Z,100.00
2023-05-19T04:47:37.378Z,100.00
2023-05-19T04:48:43.135Z,100.00
2023-05-19T04:49:46.263Z,100.00
2023-05-19T04:50:49.724Z,100.00
2023-05-19T04:51:54.971Z,100.00
2023-05-19T04:52:59.494Z,100.00
2023-05-19T04:54:02.540Z,100.00
2023-05-19T04:55:05.748Z,100.00
2023-05-19T04:56:09.533Z,100.00
2023-05-19T04:57:12.297Z,100.00
2023-05-19T04:58:15.115Z,100.00
2023-05-19T04:59:18.225Z,100.00
2023-05-19T05:00:21.783Z,100.00
2023-05-19T05:01:26.647Z,100.00
2023-05-19T05:02:29.575Z,100.00
2023-05-19T05:03:34.801Z,100.00
2023-05-19T05:04:41.055Z,100.00
2023-05-19T05:05:43.806Z,100.00
2023-05-19T05:06:48.285Z,100.00
2023-05-19T05:07:51.609Z,100.00
2023-05-19T05:08:54.608Z,100.00
2023-05-19T05:09:57.526Z,100.00
2023-05-19T05:11:00.961Z,100.00
2023-05-19T05:12:04.123Z,100.00
2023-05-19T05:13:07.203Z,100.00
2023-05-19T05:14:10.399Z,100.00
2023-05-19T05:15:13.616Z,100.00
2023-05-19T05:16:16.907Z,100.00
2023-05-19T05:17:20.624Z,100.00
2023-05-19T05:18:23.729Z,100.00
2023-05-19T05:19:26.932Z,100.00
2023-05-19T05:20:30.445Z,100.00
2023-05-19T05:21:33.991Z,100.00
2023-05-19T05:22:39.011Z,100.00
2023-05-19T05:23:42.001Z,100.00
2023-05-19T05:24:45.085Z,100.00
2023-05-19T05:25:48.436Z,100.00
2023-05-19T05:26:51.856Z,100.00
2023-05-19T05:27:54.809Z,100.00
2023-05-19T05:28:57.782Z,100.00
2023-05-19T05:30:00.855Z,100.00
2023-05-19T05:31:03.755Z,100.00
2023-05-19T05:32:06.910Z,100.00
2023-05-19T05:33:10.260Z,100.00
2023-05-19T05:34:13.694Z,100.00
2023-05-19T05:35:16.849Z,100.00
2023-05-19T05:36:19.791Z,100.00
2023-05-19T05:37:22.574Z,100.00
2023-05-19T05:38:25.695Z,100.00
2023-05-19T05:39:29.016Z,100.00
2023-05-19T05:40:32.253Z,100.00
2023-05-19T05:41:37.768Z,100.00
2023-05-19T05:42:40.792Z,100.00
2023-05-19T05:43:43.784Z,100.00
2023-05-19T05:44:46.619Z,100.00
2023-05-19T05:45:49.589Z,100.00
2023-05-19T05:46:52.826Z,100.00
2023-05-19T05:47:56.272Z,100.00
2023-05-19T05:48:59.480Z,100.00
2023-05-19T05:50:03.234Z,100.00
2023-05-19T05:51:06.715Z,100.00
2023-05-19T05:52:12.763Z,100.00
2023-05-19T05:53:20.240Z,100.00
2023-05-19T05:54:25.248Z,100.00
2023-05-19T05:55:28.494Z,100.00
2023-05-19T05:56:34.151Z,100.00
2023-05-19T05:57:37.061Z,100.00
2023-05-19T05:58:40.925Z,100.00
2023-05-19T05:59:45.613Z,100.00
2023-05-19T06:00:49.589Z,100.00
2023-05-19T06:01:52.279Z,100.00
2023-05-19T06:02:55.253Z,100.00
2023-05-19T06:03:58.086Z,100.00
2023-05-19T06:05:01.062Z,100.00
2023-05-19T06:06:04.405Z,100.00
2023-05-19T06:07:07.297Z,100.00
2023-05-19T06:08:10.109Z,100.00
2023-05-19T06:09:12.985Z,100.00
2023-05-19T06:10:15.875Z,100.00
2023-05-19T06:11:19.863Z,100.00
2023-05-19T06:12:23.237Z,100.00
2023-05-19T06:13:26.301Z,100.00
2023-05-19T06:14:29.103Z,99.77
2023-05-19T06:15:32.071Z,98.41
2023-05-19T06:16:35.690Z,99.15
2023-05-19T06:17:38.844Z,98.83
2023-05-19T06:18:41.691Z,98.04
2023-05-19T06:19:44.594Z,99.11
2023-05-19T06:20:47.358Z,98.29
2023-05-19T06:21:50.291Z,97.17
2023-05-19T06:22:53.078Z,96.79
2023-05-19T06:23:56.052Z,96.68
2023-05-19T06:24:58.917Z,96.12
2023-05-19T06:26:01.894Z,95.20
2023-05-19T06:27:04.979Z,94.34
2023-05-19T06:28:08.064Z,93.49
2023-05-19T06:29:10.897Z,94.39
2023-05-19T06:30:14.108Z,95.20
2023-05-19T06:31:17.105Z,95.30
2023-05-19T06:32:20.488Z,94.52
2023-05-19T06:33:23.289Z,93.85
2023-05-19T06:34:27.130Z,92.68
2023-05-19T06:35:30.800Z,92.17
2023-05-19T06:36:35.447Z,91.58
2023-05-19T06:37:38.217Z,91.28
2023-05-19T06:38:41.201Z,90.75
2023-05-19T06:39:44.183Z,90.56
2023-05-19T06:40:47.320Z,90.40
2023-05-19T06:41:50.056Z,90.14
2023-05-19T06:42:53.133Z,89.88
2023-05-19T06:43:56.760Z,90.73
2023-05-19T06:44:59.638Z,90.39
2023-05-19T06:46:02.668Z,88.92
2023-05-19T06:47:06.006Z,87.21
2023-05-19T06:48:08.940Z,88.04
2023-05-19T06:49:11.815Z,86.81
2023-05-19T06:50:15.132Z,86.33
2023-05-19T06:51:21.937Z,83.85
2023-05-19T06:52:25.037Z,84.82
2023-05-19T06:53:27.890Z,84.41
2023-05-19T06:54:30.922Z,84.15
2023-05-19T06:55:35.600Z,83.58
2023-05-19T06:56:42.191Z,83.02
2023-05-19T06:57:45.048Z,81.51
2023-05-19T06:58:48.200Z,81.99
2023-05-19T06:59:51.219Z,82.44
2023-05-19T07:00:54.097Z,82.19
2023-05-19T07:01:57.122Z,80.92
2023-05-19T07:03:00.043Z,80.47
2023-05-19T07:04:03.112Z,79.64
2023-05-19T07:05:06.645Z,79.68
2023-05-19T07:06:09.525Z,79.36
2023-05-19T07:07:12.431Z,80.28
2023-05-19T07:08:15.281Z,81.98
2023-05-19T07:09:18.496Z,81.23
2023-05-19T07:10:22.229Z,80.06
2023-05-19T07:11:25.005Z,82.51
2023-05-19T07:12:27.967Z,83.29
2023-05-19T07:13:31.238Z,83.86
2023-05-19T07:14:34.161Z,82.67
2023-05-19T07:15:37.061Z,83.80
2023-05-19T07:16:40.106Z,83.05
2023-05-19T07:17:43.113Z,81.74
2023-05-19T07:18:46.479Z,81.27
2023-05-19T07:19:49.522Z,84.83
2023-05-19T07:20:54.005Z,82.52
2023-05-19T07:21:57.377Z,81.16
2023-05-19T07:23:00.208Z,81.72
2023-05-19T07:24:03.155Z,74.78
2023-05-19T07:25:07.590Z,74.79
2023-05-19T07:26:10.434Z,73.04
2023-05-19T07:27:13.258Z,72.97
2023-05-19T07:28:16.164Z,74.45
2023-05-19T07:29:19.047Z,75.46
2023-05-19T07:30:21.948Z,76.44
2023-05-19T07:31:25.033Z,77.94
2023-05-19T07:32:28.004Z,78.67
2023-05-19T07:33:31.030Z,78.79
2023-05-19T07:34:33.998Z,77.44
2023-05-19T07:35:36.863Z,76.02
2023-05-19T07:36:39.750Z,74.19
2023-05-19T07:37:42.566Z,75.11
2023-05-19T07:38:46.835Z,75.26
2023-05-19T07:39:49.727Z,72.88
2023-05-19T07:40:52.555Z,73.48
2023-05-19T07:41:56.054Z,73.87
2023-05-19T07:42:58.828Z,74.91
2023-05-19T07:44:01.863Z,76.29
2023-05-19T07:45:05.049Z,79.21
2023-05-19T07:46:08.092Z,80.42
2023-05-19T07:47:11.204Z,81.36
2023-05-19T07:48:14.397Z,81.51
2023-05-19T07:49:17.260Z,81.79
2023-05-19T07:50:20.789Z,80.20
2023-05-19T07:51:23.575Z,78.60
2023-05-19T07:52:27.151Z,76.15
2023-05-19T07:53:30.253Z,76.62
2023-05-19T07:54:33.207Z,75.04
2023-05-19T07:55:36.020Z,75.08
2023-05-19T07:56:38.901Z,74.84
2023-05-19T07:57:41.768Z,75.00
2023-05-19T07:58:44.760Z,74.29
2023-05-19T07:59:47.565Z,74.56
2023-05-19T08:00:50.508Z,75.05
2023-05-19T08:01:53.409Z,75.74
2023-05-19T08:02:57.524Z,75.20
2023-05-19T08:04:00.820Z,73.54
2023-05-19T08:05:03.798Z,73.84
2023-05-19T08:06:06.665Z,73.19
2023-05-19T08:07:09.505Z,75.41
2023-05-19T08:08:13.048Z,75.22
2023-05-19T08:09:16.006Z,74.43
2023-05-19T08:10:19.310Z,73.47
2023-05-19T08:11:22.518Z,73.01
2023-05-19T08:12:25.740Z,72.19
2023-05-19T08:13:28.517Z,71.40
2023-05-19T08:14:33.630Z,71.51
2023-05-19T08:15:37.059Z,70.70
2023-05-19T08:16:42.354Z,68.98
2023-05-19T08:17:45.469Z,68.92
2023-05-19T08:18:48.361Z,71.24
2023-05-19T08:19:51.283Z,71.38
2023-05-19T08:20:54.313Z,69.91
2023-05-19T08:21:57.811Z,68.47
2023-05-19T08:23:00.672Z,65.94
2023-05-19T08:24:04.072Z,66.10
2023-05-19T08:25:07.718Z,65.63
2023-05-19T08:26:10.595Z,65.57
2023-05-19T08:27:13.461Z,65.63
2023-05-19T08:28:16.289Z,67.91
2023-05-19T08:29:19.189Z,69.39
2023-05-19T08:30:22.278Z,68.89
2023-05-19T08:31:25.338Z,66.24
2023-05-19T08:32:28.270Z,65.13
2023-05-19T08:33:31.133Z,65.82
2023-05-19T08:34:33.978Z,67.45
2023-05-19T08:35:36.765Z,66.40
2023-05-19T08:36:41.009Z,70.01
2023-05-19T08:37:44.025Z,68.14
2023-05-19T08:38:46.889Z,69.22
2023-05-19T08:39:49.856Z,68.85
2023-05-19T08:40:53.017Z,69.45
2023-05-19T08:41:56.374Z,70.57
2023-05-19T08:42:59.167Z,69.33
2023-05-19T08:44:02.143Z,72.89
2023-05-19T08:45:05.423Z,72.47
2023-05-19T08:46:10.343Z,73.56
2023-05-19T08:47:14.531Z,69.22
2023-05-19T08:48:19.513Z,66.05
2023-05-19T08:49:30.723Z,67.94
2023-05-19T08:50:39.544Z,65.21
2023-05-19T08:52:10.329Z,64.57
2023-05-19T08:53:33.034Z,67.86
2023-05-19T08:54:48.571Z,64.49
2023-05-19T08:56:15.181Z,62.48
2023-05-19T08:57:19.006Z,62.87
2023-05-19T08:58:22.623Z,62.80
2023-05-19T08:59:25.878Z,64.76
2023-05-19T09:00:30.116Z,61.73
2023-05-19T09:01:33.807Z,61.70
2023-05-19T09:02:50.269Z,62.13
2023-05-19T09:04:02.057Z,63.75
2023-05-19T09:05:08.672Z,65.99
2023-05-19T09:06:15.253Z,65.98
2023-05-19T09:07:19.079Z,67.02
2023-05-19T09:08:22.812Z,69.18
2023-05-19T09:09:25.821Z,70.97
2023-05-19T09:10:29.326Z,71.80
2023-05-19T09:11:34.094Z,71.24
2023-05-19T09:12:37.349Z,71.08
2023-05-19T09:13:40.294Z,74.51
2023-05-19T09:14:43.470Z,73.60
2023-05-19T09:15:47.291Z,70.96
2023-05-19T09:16:52.929Z,70.19
2023-05-19T09:18:14.266Z,71.21
2023-05-19T09:19:17.370Z,71.65
2023-05-19T09:20:20.388Z,71.14
2023-05-19T09:21:31.483Z,69.44
2023-05-19T09:22:36.614Z,66.68
2023-05-19T09:23:39.716Z,66.49
2023-05-19T09:24:43.053Z,65.67
2023-05-19T09:25:50.419Z,65.16
2023-05-19T09:27:00.324Z,62.89
2023-05-19T09:28:03.365Z,61.02
2023-05-19T09:29:26.417Z,58.09
2023-05-19T09:30:29.358Z,57.44
2023-05-19T09:31:33.845Z,54.56
2023-05-19T09:32:36.788Z,59.14
2023-05-19T09:33:45.554Z,57.09
2023-05-19T09:34:48.994Z,58.44
2023-05-19T09:35:52.247Z,62.19
2023-05-19T09:36:55.303Z,63.73
2023-05-19T09:37:58.527Z,60.37
2023-05-19T09:39:01.586Z,60.55
2023-05-19T09:40:05.818Z,60.32
2023-05-19T09:41:09.449Z,60.13
2023-05-19T09:42:14.383Z,60.57
2023-05-19T09:43:17.398Z,59.62
2023-05-19T09:44:24.386Z,60.61
2023-05-19T09:45:27.611Z,59.59
2023-05-19T09:46:30.745Z,59.57
2023-05-19T09:47:40.613Z,61.75
2023-05-19T09:48:44.144Z,62.86
2023-05-19T09:49:48.001Z,61.79
2023-05-19T09:50:52.062Z,60.36
2023-05-19T09:51:55.612Z,60.31
2023-05-19T09:52:58.797Z,62.32
2023-05-19T09:54:01.774Z,60.89
2023-05-19T09:55:11.910Z,62.50
2023-05-19T09:56:15.404Z,62.28
2023-05-19T09:57:18.217Z,63.20
2023-05-19T09:58:21.815Z,61.55
2023-05-19T09:59:25.597Z,61.72
2023-05-19T10:00:29.763Z,64.84
2023-05-19T10:01:33.900Z,66.07
2023-05-19T10:02:37.464Z,64.59
2023-05-19T10:03:41.830Z,63.33
2023-05-19T10:04:46.879Z,61.60
2023-05-19T10:05:51.406Z,58.79
2023-05-19T10:06:55.255Z,57.80
2023-05-19T10:07:58.272Z,56.48
2023-05-19T10:09:02.294Z,57.93
2023-05-19T10:10:07.351Z,55.65
2023-05-19T10:11:11.579Z,55.79
2023-05-19T10:12:15.092Z,54.86
2023-05-19T10:13:21.672Z,53.84
2023-05-19T10:14:26.323Z,51.72
2023-05-19T10:15:29.330Z,51.87
2023-05-19T10:16:33.132Z,52.42
2023-05-19T10:17:37.019Z,55.37
2023-05-19T10:18:40.475Z,52.31
2023-05-19T10:19:45.089Z,52.93
2023-05-19T10:20:50.483Z,55.36
2023-05-19T10:21:54.104Z,52.39
2023-05-19T10:22:57.215Z,50.54
2023-05-19T10:24:00.136Z,52.00
2023-05-19T10:25:03.097Z,53.01
2023-05-19T10:26:07.241Z,54.87
2023-05-19T10:27:14.867Z,54.48
2023-05-19T10:28:25.837Z,56.25
2023-05-19T10:29:38.630Z,57.76
2023-05-19T10:30:45.144Z,57.97
2023-05-19T10:31:50.877Z,60.61
2023-05-19T10:32:57.664Z,57.29
2023-05-19T10:34:30.339Z,54.71
2023-05-19T10:35:58.550Z,56.85
2023-05-19T10:37:25.281Z,55.38
2023-05-19T10:38:33.721Z,57.20
2023-05-19T10:39:37.041Z,55.26
2023-05-19T10:40:54.933Z,53.41
2023-05-19T10:42:17.474Z,54.69
2023-05-19T10:43:48.037Z,55.26
2023-05-19T10:45:01.070Z,54.83
2023-05-19T10:46:06.653Z,55.30
2023-05-19T10:47:12.748Z,54.77
2023-05-19T10:48:17.128Z,53.63
2023-05-19T10:49:23.514Z,52.07
2023-05-19T10:50:26.701Z,52.82
2023-05-19T10:51:32.924Z,52.71
2023-05-19T10:52:39.695Z,52.28
2023-05-19T10:53:46.632Z,51.37
2023-05-19T10:54:49.825Z,52.54
2023-05-19T10:55:56.404Z,53.10
2023-05-19T10:56:59.391Z,54.95
2023-05-19T10:58:02.299Z,55.02
2023-05-19T10:59:05.064Z,57.68
2023-05-19T11:00:32.150Z,56.32
2023-05-19T11:01:36.305Z,57.90
2023-05-19T11:02:44.247Z,56.80
2023-05-19T11:03:59.799Z,57.35
2023-05-19T11:05:29.665Z,57.59
2023-05-19T11:06:36.380Z,59.21
2023-05-19T11:07:42.785Z,61.50
2023-05-19T11:08:45.644Z,59.36
2023-05-19T11:09:54.645Z,57.92
2023-05-19T11:10:57.623Z,56.40
2023-05-19T11:12:04.195Z,55.01
2023-05-19T11:13:07.136Z,51.08
2023-05-19T11:14:12.676Z,51.91
2023-05-19T11:15:16.754Z,49.79
2023-05-19T11:16:26.788Z,48.50
2023-05-19T11:17:30.011Z,46.90
2023-05-19T11:18:32.917Z,47.92
2023-05-19T11:19:36.548Z,48.52
2023-05-19T11:20:39.644Z,48.10
2023-05-19T11:21:49.439Z,48.71
2023-05-19T11:23:07.346Z,49.71
2023-05-19T11:24:10.739Z,48.59
2023-05-19T11:25:13.505Z,48.16
2023-05-19T11:26:16.323Z,49.41
2023-05-19T11:27:21.822Z,46.82
2023-05-19T11:28:29.553Z,43.50
2023-05-19T11:29:33.547Z,43.24
2023-05-19T11:30:38.738Z,44.71
2023-05-19T11:31:43.943Z,44.83
2023-05-19T11:32:48.682Z,44.94
2023-05-19T11:33:51.738Z,41.88
2023-05-19T11:34:56.352Z,44.55
2023-05-19T11:35:59.250Z,47.36
2023-05-19T11:37:02.326Z,48.16
2023-05-19T11:38:07.037Z,44.02
2023-05-19T11:39:10.815Z,42.23
2023-05-19T11:40:16.039Z,41.76
2023-05-19T11:41:20.763Z,39.87
2023-05-19T11:42:24.429Z,40.73
2023-05-19T11:43:28.099Z,41.97
2023-05-19T11:44:31.923Z,42.26
2023-05-19T11:45:35.395Z,39.23
2023-05-19T11:46:38.824Z,43.04
2023-05-19T11:47:56.339Z,42.88
2023-05-19T11:49:06.024Z,43.90
2023-05-19T11:50:11.726Z,45.57
2023-05-19T11:51:14.935Z,45.04
2023-05-19T11:52:17.982Z,41.46
2023-05-19T11:53:21.214Z,40.34
2023-05-19T11:54:33.616Z,40.99
2023-05-19T11:55:45.012Z,42.04
2023-05-19T11:56:48.280Z,40.27
2023-05-19T11:58:05.211Z,41.05
2023-05-19T11:59:09.825Z,38.58
2023-05-19T12:00:14.865Z,41.24
2023-05-19T12:01:17.971Z,41.90
2023-05-19T12:02:25.386Z,40.25
2023-05-19T12:03:30.006Z,40.51
2023-05-19T12:04:33.007Z,41.72
2023-05-19T12:05:44.500Z,43.54
2023-05-19T12:06:49.519Z,42.09
2023-05-19T12:07:53.206Z,41.67
2023-05-19T12:08:56.298Z,41.02
2023-05-19T12:10:00.677Z,40.77
2023-05-19T12:11:03.732Z,44.47
2023-05-19T12:12:06.816Z,44.50
2023-05-19T12:13:10.333Z,41.97
2023-05-19T12:14:13.696Z,41.27
2023-05-19T12:15:21.193Z,41.15
2023-05-19T12:16:24.152Z,43.13
2023-05-19T12:17:27.060Z,44.37
2023-05-19T12:18:32.280Z,39.49
2023-05-19T12:19:35.457Z,38.69
2023-05-19T12:20:38.401Z,39.27
2023-05-19T12:21:41.835Z,41.44
2023-05-19T12:22:44.999Z,40.42
2023-05-19T12:23:48.240Z,42.66
2023-05-19T12:24:51.333Z,42.77
2023-05-19T12:25:54.321Z,45.49
2023-05-19T12:27:29.336Z,46.88
2023-05-19T12:28:32.173Z,46.31
2023-05-19T12:29:35.056Z,45.50
2023-05-19T12:30:38.188Z,45.95
2023-05-19T12:31:41.481Z,46.86
2023-05-19T12:32:44.612Z,45.07
2023-05-19T12:33:52.545Z,46.30
2023-05-19T12:34:58.823Z,45.35
2023-05-19T12:36:01.706Z,46.70
2023-05-19T12:37:05.784Z,42.59
2023-05-19T12:38:08.635Z,42.60
2023-05-19T12:39:12.032Z,41.65
2023-05-19T12:40:17.268Z,45.63
2023-05-19T12:41:20.286Z,42.05
2023-05-19T12:42:24.362Z,40.73
2023-05-19T12:43:27.783Z,41.06
2023-05-19T12:44:31.787Z,40.90
2023-05-19T12:45:37.546Z,40.56
2023-05-19T12:46:41.141Z,41.60
2023-05-19T12:47:49.427Z,41.72
2023-05-19T12:48:52.392Z,40.16
2023-05-19T12:50:05.150Z,40.82
2023-05-19T12:51:08.270Z,40.78
2023-05-19T12:52:14.056Z,42.35
2023-05-19T12:53:17.917Z,45.71
2023-05-19T12:54:23.799Z,42.28
2023-05-19T12:55:27.067Z,42.48
2023-05-19T12:56:29.960Z,43.23
2023-05-19T12:57:37.061Z,41.91
2023-05-19T12:58:40.501Z,42.47
2023-05-19T12:59:43.679Z,40.36
2023-05-19T13:00:48.876Z,40.95
2023-05-19T13:02:00.397Z,41.46
2023-05-19T13:03:05.661Z,41.62
2023-05-19T13:04:08.984Z,41.49
2023-05-19T13:05:12.341Z,44.44
2023-05-19T13:06:15.408Z,43.39
2023-05-19T13:07:21.943Z,46.28
2023-05-19T13:08:24.939Z,45.48
2023-05-19T13:09:28.825Z,46.15
2023-05-19T13:10:33.258Z,44.91
2023-05-19T13:11:36.384Z,43.74
2023-05-19T13:12:39.276Z,40.71
2023-05-19T13:13:42.222Z,40.37
2023-05-19T13:14:45.164Z,41.37
2023-05-19T13:15:49.337Z,40.62
2023-05-19T13:16:52.343Z,40.90
2023-05-19T13:17:55.543Z,41.46
2023-05-19T13:18:58.937Z,40.10
2023-05-19T13:20:02.558Z,43.25
2023-05-19T13:21:05.973Z,44.19
2023-05-19T13:22:08.948Z,41.69
2023-05-19T13:23:12.761Z,42.27
2023-05-19T13:24:15.888Z,41.99
2023-05-19T13:25:18.964Z,43.39
2023-05-19T13:26:21.870Z,42.95
2023-05-19T13:27:25.281Z,41.66
2023-05-19T13:28:28.498Z,41.49
2023-05-19T13:29:31.386Z,43.01
2023-05-19T13:30:36.476Z,42.36
2023-05-19T13:31:39.629Z,41.96
2023-05-19T13:32:42.948Z,40.93
2023-05-19T13:33:45.817Z,39.92
2023-05-19T13:34:49.164Z,41.08
2023-05-19T13:35:51.961Z,41.78
2023-05-19T13:36:54.821Z,43.12
2023-05-19T13:37:57.974Z,44.52
2023-05-19T13:39:01.496Z,44.81
2023-05-19T13:40:04.430Z,46.26
2023-05-19T13:41:09.373Z,45.88
2023-05-19T13:42:13.780Z,46.60
2023-05-19T13:43:16.689Z,45.14
2023-05-19T13:44:19.542Z,45.39